createdAt,value
2023-07-24T00:02:06.555Z,99507.00
2023-07-24T00:04:34.143Z,99509.00
2023-07-24T00:07:01.872Z,99501.00
2023-07-24T00:09:30.013Z,99493.00
2023-07-24T00:11:57.493Z,99499.00
2023-07-24T00:14:25.024Z,99503.00
2023-07-24T00:16:52.512Z,99491.00
2023-07-24T00:19:20.001Z,99501.00
2023-07-24T00:21:47.527Z,99489.00
2023-07-24T00:24:15.056Z,99492.00
2023-07-24T00:26:43.067Z,99484.00
2023-07-24T00:29:10.397Z,99491.00
2023-07-24T00:31:37.779Z,99483.00
2023-07-24T00:34:05.412Z,99468.00
2023-07-24T00:36:33.117Z,99477.00
2023-07-24T00:39:00.572Z,99476.00
2023-07-24T00:41:27.957Z,99463.00
2023-07-24T00:43:56.009Z,99466.00
2023-07-24T00:46:24.116Z,99477.00
2023-07-24T00:48:52.020Z,99476.00
2023-07-24T00:51:20.018Z,99476.00
2023-07-24T00:53:48.113Z,99473.00
2023-07-24T00:56:15.590Z,99462.00
2023-07-24T00:58:42.930Z,99472.00
2023-07-24T01:01:12.348Z,99476.00
2023-07-24T01:03:40.376Z,99468.00
2023-07-24T01:06:07.810Z,99470.00
2023-07-24T01:08:35.372Z,99472.00
2023-07-24T01:11:09.044Z,99470.00
2023-07-24T01:13:41.429Z,99467.00
2023-07-24T01:16:14.960Z,99466.00
2023-07-24T01:18:45.730Z,99457.00
2023-07-24T01:21:15.202Z,99463.00
2023-07-24T01:23:55.916Z,99462.00
2023-07-24T01:26:24.799Z,99458.00
2023-07-24T01:28:52.371Z,99452.00
2023-07-24T01:31:19.752Z,99447.00
2023-07-24T01:33:47.190Z,99446.00
2023-07-24T01:36:15.570Z,99450.00
2023-07-24T01:38:43.438Z,99444.00
2023-07-24T01:41:11.107Z,99440.00
2023-07-24T01:43:39.235Z,99434.00
2023-07-24T01:46:06.609Z,99435.00
2023-07-24T01:48:33.964Z,99426.00
2023-07-24T01:51:01.315Z,99431.00
2023-07-24T01:53:28.711Z,99431.00
2023-07-24T01:55:56.114Z,99432.00
2023-07-24T01:58:23.586Z,99428.00
2023-07-24T02:00:51.640Z,99428.00
2023-07-24T02:03:19.296Z,99427.00
2023-07-24T02:05:51.399Z,99415.00
2023-07-24T02:08:18.872Z,99415.00
2023-07-24T02:10:50.554Z,99421.00
2023-07-24T02:13:17.957Z,99423.00
2023-07-24T02:15:45.329Z,99429.00
2023-07-24T02:18:13.412Z,99426.00
2023-07-24T02:20:40.767Z,99428.00
2023-07-24T02:23:09.932Z,99433.00
2023-07-24T02:25:37.695Z,99428.00
2023-07-24T02:28:05.243Z,99428.00
2023-07-24T02:30:32.626Z,99415.00
2023-07-24T02:33:00.003Z,99423.00
2023-07-24T02:35:28.027Z,99423.00
2023-07-24T02:37:55.494Z,99419.00
2023-07-24T02:40:22.949Z,99421.00
2023-07-24T02:42:50.284Z,99419.00
2023-07-24T02:45:17.671Z,99419.00
2023-07-24T02:47:45.074Z,99424.00
2023-07-24T02:50:12.487Z,99429.00
2023-07-24T02:52:40.515Z,99424.00
2023-07-24T02:55:08.411Z,99431.00
2023-07-24T02:57:35.939Z,99424.00
2023-07-24T03:00:03.766Z,99420.00
2023-07-24T03:02:31.305Z,99425.00
2023-07-24T03:04:59.031Z,99413.00
2023-07-24T03:07:26.328Z,99417.00
2023-07-24T03:09:54.595Z,99412.00
2023-07-24T03:12:21.927Z,99420.00
2023-07-24T03:14:49.409Z,99414.00
2023-07-24T03:17:16.768Z,99427.00
2023-07-24T03:19:44.152Z,99422.00
2023-07-24T03:22:11.847Z,99424.00
2023-07-24T03:24:39.416Z,99423.00
2023-07-24T03:27:07.494Z,99417.00
2023-07-24T03:29:34.948Z,99415.00
2023-07-24T03:32:02.302Z,99416.00
2023-07-24T03:34:29.676Z,99408.00
2023-07-24T03:36:57.030Z,99409.00
2023-07-24T03:39:24.422Z,99401.00
2023-07-24T03:41:51.751Z,99398.00
2023-07-24T03:44:19.880Z,99389.00
2023-07-24T03:46:47.282Z,99395.00
2023-07-24T03:49:14.727Z,99391.00
2023-07-24T03:51:42.185Z,99391.00
2023-07-24T03:54:09.582Z,99390.00
2023-07-24T03:56:36.974Z,99382.00
2023-07-24T03:59:04.344Z,99372.00
2023-07-24T04:01:32.415Z,99368.00
2023-07-24T04:04:00.155Z,99362.00
2023-07-24T04:06:27.912Z,99368.00
2023-07-24T04:08:55.566Z,99365.00
2023-07-24T04:11:22.958Z,99371.00
2023-07-24T04:13:50.319Z,99368.00
2023-07-24T04:16:17.684Z,99365.00
2023-07-24T04:18:45.817Z,99364.00
2023-07-24T04:21:13.315Z,99361.00
2023-07-24T04:23:40.722Z,99358.00
2023-07-24T04:26:08.098Z,99352.00
2023-07-24T04:28:35.437Z,99359.00
2023-07-24T04:31:02.966Z,99354.00
2023-07-24T04:33:30.484Z,99364.00
2023-07-24T04:36:00.045Z,99363.00
2023-07-24T04:38:27.855Z,99357.00
2023-07-24T04:40:55.252Z,99360.00
2023-07-24T04:43:22.770Z,99360.00
2023-07-24T04:45:50.219Z,99363.00
2023-07-24T04:48:18.918Z,99352.00
2023-07-24T04:50:46.749Z,99354.00
2023-07-24T04:53:14.807Z,99355.00
2023-07-24T04:55:42.158Z,99362.00
2023-07-24T04:58:09.611Z,99352.00
2023-07-24T05:00:36.956Z,99358.00
2023-07-24T05:03:04.457Z,99358.00
2023-07-24T05:05:32.034Z,99351.00
2023-07-24T05:07:59.389Z,99342.00
2023-07-24T05:10:27.595Z,99348.00
2023-07-24T05:12:56.975Z,99348.00
2023-07-24T05:15:24.533Z,99341.00
2023-07-24T05:17:51.904Z,99334.00
2023-07-24T05:20:19.281Z,99337.00
2023-07-24T05:22:46.668Z,99334.00
2023-07-24T05:25:14.144Z,99329.00
2023-07-24T05:27:44.306Z,99336.00
2023-07-24T05:30:13.189Z,99340.00
2023-07-24T05:32:40.607Z,99333.00
2023-07-24T05:35:08.526Z,99336.00
2023-07-24T05:37:35.850Z,99338.00
2023-07-24T05:40:03.405Z,99333.00
2023-07-24T05:42:30.753Z,99339.00
2023-07-24T05:44:59.006Z,99327.00
2023-07-24T05:47:26.982Z,99333.00
2023-07-24T05:49:54.797Z,99333.00
2023-07-24T05:52:22.270Z,99337.00
2023-07-24T05:54:49.579Z,99326.00
2023-07-24T05:57:16.899Z,99327.00
2023-07-24T05:59:44.319Z,99325.00
2023-07-24T06:02:12.346Z,99327.00
2023-07-24T06:04:39.827Z,99329.00
2023-07-24T06:07:07.242Z,99328.00
2023-07-24T06:09:34.574Z,99323.00
2023-07-24T06:12:01.864Z,99317.00
2023-07-24T06:14:29.208Z,99324.00
2023-07-24T06:16:56.553Z,99333.00
2023-07-24T06:19:24.680Z,99336.00
2023-07-24T06:21:52.058Z,99337.00
2023-07-24T06:24:19.451Z,99323.00
2023-07-24T06:26:46.968Z,99335.00
2023-07-24T06:29:15.081Z,99329.00
2023-07-24T06:31:42.549Z,99333.00
2023-07-24T06:34:09.887Z,99331.00
2023-07-24T06:36:37.894Z,99340.00
2023-07-24T06:39:05.286Z,99343.00
2023-07-24T06:41:32.679Z,99341.00
2023-07-24T06:44:00.325Z,99336.00
2023-07-24T06:46:27.908Z,99336.00
2023-07-24T06:48:55.648Z,99336.00
2023-07-24T06:51:23.010Z,99344.00
2023-07-24T06:53:51.216Z,99340.00
2023-07-24T06:56:18.615Z,99342.00
2023-07-24T06:58:47.190Z,99333.00
2023-07-24T07:01:14.762Z,99337.00
2023-07-24T07:03:42.452Z,99338.00
2023-07-24T07:06:28.186Z,99324.00
2023-07-24T07:08:56.837Z,99326.00
2023-07-24T07:11:24.292Z,99331.00
2023-07-24T07:13:51.915Z,99339.00
2023-07-24T07:16:19.646Z,99342.00
2023-07-24T07:18:47.048Z,99338.00
2023-07-24T07:21:14.436Z,99329.00
2023-07-24T07:23:41.780Z,99332.00
2023-07-24T07:26:09.954Z,99332.00
2023-07-24T07:28:38.054Z,99326.00
2023-07-24T07:31:05.441Z,99327.00
2023-07-24T07:33:32.894Z,99326.00
2023-07-24T07:36:00.325Z,99324.00
2023-07-24T07:38:27.765Z,99314.00
2023-07-24T07:40:55.133Z,99307.00
2023-07-24T07:43:23.175Z,99309.00
2023-07-24T07:45:50.582Z,99309.00
2023-07-24T07:48:17.971Z,99306.00
2023-07-24T07:50:45.348Z,99305.00
2023-07-24T07:53:12.656Z,99294.00
2023-07-24T07:55:40.056Z,99288.00
2023-07-24T07:58:07.397Z,99270.00
2023-07-24T08:00:36.528Z,99277.00
2023-07-24T08:03:04.102Z,99281.00
2023-07-24T08:05:32.467Z,99261.00
2023-07-24T08:07:59.871Z,99256.00
2023-07-24T08:10:27.338Z,99250.00
2023-07-24T08:12:54.681Z,99249.00
2023-07-24T08:15:22.118Z,99246.00
2023-07-24T08:17:50.188Z,99253.00
2023-07-24T08:20:17.593Z,99258.00
2023-07-24T08:22:45.022Z,99262.00
2023-07-24T08:25:12.375Z,99274.00
2023-07-24T08:27:54.388Z,99259.00
2023-07-24T08:30:27.065Z,99248.00
2023-07-24T08:32:55.370Z,99256.00
2023-07-24T08:35:22.771Z,99247.00
2023-07-24T08:37:50.145Z,99246.00
2023-07-24T08:40:17.933Z,99247.00
2023-07-24T08:42:45.589Z,99251.00
2023-07-24T08:45:14.065Z,99239.00
2023-07-24T08:47:44.674Z,99238.00
2023-07-24T08:50:13.130Z,99235.00
2023-07-24T08:52:42.644Z,99239.00
2023-07-24T08:55:11.453Z,99246.00
2023-07-24T08:57:38.891Z,99234.00
2023-07-24T09:00:07.499Z,99233.00
2023-07-24T09:02:35.588Z,99228.00
2023-07-24T09:05:03.756Z,99222.00
2023-07-24T09:07:32.708Z,99220.00
2023-07-24T09:10:00.344Z,99228.00
2023-07-24T09:12:27.900Z,99235.00
2023-07-24T09:15:07.253Z,99237.00
2023-07-24T09:17:35.882Z,99233.00
2023-07-24T09:20:04.261Z,99244.00
2023-07-24T09:22:34.299Z,99239.00
2023-07-24T09:25:03.874Z,99234.00
2023-07-24T09:27:32.467Z,99235.00
2023-07-24T09:30:00.710Z,99237.00
2023-07-24T09:32:29.631Z,99234.00
2023-07-24T09:34:58.000Z,99227.00
2023-07-24T09:37:26.963Z,99220.00
2023-07-24T09:39:55.459Z,99232.00
2023-07-24T09:42:33.113Z,99220.00
2023-07-24T09:45:01.157Z,99226.00
2023-07-24T09:47:51.406Z,99217.00
2023-07-24T09:50:16.568Z,99226.00
2023-07-24T09:52:45.346Z,99226.00
2023-07-24T09:55:17.979Z,99232.00
2023-07-24T09:57:46.055Z,99213.00
2023-07-24T10:00:15.132Z,99214.00
2023-07-24T10:02:43.306Z,99210.00
2023-07-24T10:05:11.498Z,99197.00
2023-07-24T10:07:39.440Z,99202.00
2023-07-24T10:10:08.742Z,99198.00
2023-07-24T10:12:37.854Z,99193.00
2023-07-24T10:15:07.942Z,99182.00
2023-07-24T10:17:39.339Z,99184.00
2023-07-24T10:20:08.889Z,99186.00
2023-07-24T10:22:38.164Z,99175.00
2023-07-24T10:25:06.442Z,99176.00
2023-07-24T10:27:40.694Z,99179.00
2023-07-24T10:30:22.889Z,99169.00
2023-07-24T10:33:03.997Z,99176.00
2023-07-24T10:35:42.637Z,99176.00
2023-07-24T10:38:10.845Z,99183.00
2023-07-24T10:40:38.369Z,99191.00
2023-07-24T10:43:11.442Z,99205.00
2023-07-24T10:45:43.443Z,99229.00
2023-07-24T10:48:12.106Z,99234.00
2023-07-24T10:50:40.759Z,99229.00
2023-07-24T10:53:09.017Z,99207.00
2023-07-24T10:55:36.468Z,99196.00
2023-07-24T10:58:03.988Z,99189.00
2023-07-24T11:00:32.143Z,99181.00
2023-07-24T11:02:59.731Z,99181.00
2023-07-24T11:05:27.531Z,99172.00
2023-07-24T11:07:55.567Z,99155.00
2023-07-24T11:10:24.089Z,99160.00
2023-07-24T11:12:51.844Z,99156.00
2023-07-24T11:15:26.820Z,99153.00
2023-07-24T11:17:55.087Z,99157.00
2023-07-24T11:20:22.508Z,99148.00
2023-07-24T11:22:49.948Z,99148.00
2023-07-24T11:25:17.372Z,99138.00
2023-07-24T11:27:46.971Z,99144.00
2023-07-24T11:30:19.954Z,99141.00
2023-07-24T11:32:49.092Z,99130.00
2023-07-24T11:35:17.465Z,99134.00
2023-07-24T11:37:45.042Z,99131.00
2023-07-24T11:40:15.310Z,99133.00
2023-07-24T11:42:44.783Z,99132.00
2023-07-24T11:45:12.224Z,99121.00
2023-07-24T11:47:44.452Z,99127.00
2023-07-24T11:50:12.390Z,99129.00
2023-07-24T11:52:43.415Z,99122.00
2023-07-24T11:55:11.520Z,99126.00
2023-07-24T11:57:39.186Z,99129.00
2023-07-24T12:00:18.204Z,99127.00
2023-07-24T12:02:45.667Z,99123.00
2023-07-24T12:05:13.439Z,99124.00
2023-07-24T12:07:44.567Z,99121.00
2023-07-24T12:10:12.814Z,99112.00
2023-07-24T12:12:41.329Z,99120.00
2023-07-24T12:15:10.011Z,99109.00
2023-07-24T12:17:37.756Z,99101.00
2023-07-24T12:20:08.577Z,99093.00
2023-07-24T12:22:36.234Z,99100.00
2023-07-24T12:25:05.222Z,99102.00
2023-07-24T12:27:33.141Z,99099.00
2023-07-24T12:30:01.581Z,99094.00
2023-07-24T12:32:29.028Z,99104.00
2023-07-24T12:34:56.419Z,99092.00
2023-07-24T12:37:23.858Z,99089.00
2023-07-24T12:39:51.485Z,99100.00
2023-07-24T12:42:19.695Z,99106.00
2023-07-24T12:44:47.133Z,99084.00
2023-07-24T12:47:14.563Z,99101.00
2023-07-24T12:49:42.128Z,99106.00
2023-07-24T12:52:09.485Z,99113.00
2023-07-24T12:54:55.068Z,99119.00
2023-07-24T12:57:26.607Z,99115.00
2023-07-24T12:59:54.614Z,99097.00
2023-07-24T13:02:22.036Z,99102.00
2023-07-24T13:04:49.451Z,99094.00
2023-07-24T13:07:16.887Z,99090.00
2023-07-24T13:09:44.880Z,99074.00
2023-07-24T13:12:12.336Z,99073.00
2023-07-24T13:14:42.527Z,99068.00
2023-07-24T13:17:10.419Z,99067.00
2023-07-24T13:19:37.926Z,99068.00
2023-07-24T13:22:05.954Z,99064.00
2023-07-24T13:24:33.461Z,99070.00
2023-07-24T13:27:00.843Z,99066.00
2023-07-24T13:29:28.277Z,99072.00
2023-07-24T13:31:56.422Z,99061.00
2023-07-24T13:34:24.973Z,99057.00
2023-07-24T13:36:52.497Z,99047.00
2023-07-24T13:39:19.996Z,99038.00
2023-07-24T13:41:47.441Z,99033.00
2023-07-24T13:44:14.851Z,99023.00
2023-07-24T13:46:42.230Z,99019.00
2023-07-24T13:49:10.419Z,99015.00
2023-07-24T13:51:37.889Z,99002.00
2023-07-24T13:54:05.305Z,98996.00
2023-07-24T13:56:35.466Z,98999.00
2023-07-24T13:59:03.610Z,98981.00
2023-07-24T14:01:31.320Z,98979.00
2023-07-24T14:03:59.274Z,98966.00
2023-07-24T14:06:27.691Z,98966.00
2023-07-24T14:08:55.075Z,98969.00
2023-07-24T14:11:25.243Z,98954.00
2023-07-24T14:13:52.673Z,98954.00
2023-07-24T14:16:20.139Z,98944.00
2023-07-24T14:18:47.557Z,98943.00
2023-07-24T14:21:14.952Z,98934.00
2023-07-24T14:23:43.077Z,98939.00
2023-07-24T14:26:10.484Z,98943.00
2023-07-24T14:28:37.898Z,98930.00
2023-07-24T14:31:05.917Z,98928.00
2023-07-24T14:33:33.366Z,98917.00
2023-07-24T14:36:00.776Z,98922.00
2023-07-24T14:38:28.433Z,98925.00
2023-07-24T14:40:57.731Z,98917.00
2023-07-24T14:43:26.426Z,98902.00
2023-07-24T14:45:54.000Z,98895.00
2023-07-24T14:48:21.327Z,98885.00
2023-07-24T14:50:49.538Z,98883.00
2023-07-24T14:53:17.057Z,98871.00
2023-07-24T14:55:44.666Z,98857.00
2023-07-24T14:58:12.729Z,98860.00
2023-07-24T15:00:40.073Z,98857.00
2023-07-24T15:03:07.546Z,98859.00
2023-07-24T15:05:35.081Z,98853.00
2023-07-24T15:08:03.037Z,98849.00
2023-07-24T15:10:30.482Z,98849.00
2023-07-24T15:12:57.798Z,98839.00
2023-07-24T15:15:25.908Z,98834.00
2023-07-24T15:17:53.263Z,98819.00
2023-07-24T15:20:20.611Z,98825.00
2023-07-24T15:22:48.032Z,98830.00
2023-07-24T15:25:15.325Z,98832.00
2023-07-24T15:27:42.685Z,98845.00
2023-07-24T15:30:10.302Z,98840.00
2023-07-24T15:32:38.493Z,98852.00
2023-07-24T15:35:06.771Z,98839.00
2023-07-24T15:37:34.203Z,98839.00
2023-07-24T15:40:01.730Z,98848.00
2023-07-24T15:42:29.168Z,98841.00
2023-07-24T15:44:56.560Z,98836.00
2023-07-24T15:47:26.471Z,98827.00
2023-07-24T15:49:54.603Z,98831.00
2023-07-24T15:52:22.040Z,98821.00
2023-07-24T15:54:49.499Z,98811.00
2023-07-24T15:57:16.897Z,98813.00
2023-07-24T15:59:44.308Z,98813.00
2023-07-24T16:02:11.785Z,98818.00
2023-07-24T16:04:39.227Z,98801.00
2023-07-24T16:07:07.278Z,98805.00
2023-07-24T16:09:34.670Z,98793.00
2023-07-24T16:12:02.302Z,98800.00
2023-07-24T16:14:29.657Z,98798.00
2023-07-24T16:16:57.015Z,98797.00
2023-07-24T16:19:24.378Z,98787.00
2023-07-24T16:21:52.163Z,98801.00
2023-07-24T16:24:20.994Z,98808.00
2023-07-24T16:26:49.154Z,98815.00
2023-07-24T16:29:16.938Z,98825.00
2023-07-24T16:31:44.561Z,98821.00
2023-07-24T16:34:13.013Z,98826.00
2023-07-24T16:36:41.260Z,98817.00
2023-07-24T16:39:08.828Z,98820.00
2023-07-24T16:41:37.893Z,98816.00
2023-07-24T16:44:08.149Z,98808.00
2023-07-24T16:46:35.841Z,98799.00
2023-07-24T16:49:03.291Z,98793.00
2023-07-24T16:51:30.945Z,98780.00
2023-07-24T16:53:58.505Z,98795.00
2023-07-24T16:56:25.863Z,98796.00
2023-07-24T16:58:53.822Z,98803.00
2023-07-24T17:01:21.317Z,98798.00
2023-07-24T17:03:49.457Z,98805.00
2023-07-24T17:06:16.876Z,98801.00
2023-07-24T17:08:44.245Z,98788.00
2023-07-24T17:11:11.942Z,98783.00
2023-07-24T17:13:41.397Z,98782.00
2023-07-24T17:16:09.823Z,98775.00
2023-07-24T17:18:37.255Z,98771.00
2023-07-24T17:21:04.775Z,98773.00
2023-07-24T17:23:32.180Z,98757.00
2023-07-24T17:25:59.592Z,98768.00
2023-07-24T17:28:27.029Z,98767.00
2023-07-24T17:30:54.742Z,98766.00
2023-07-24T17:33:24.503Z,98772.00
2023-07-24T17:35:53.376Z,98764.00
2023-07-24T17:38:20.693Z,98764.00
2023-07-24T17:40:49.794Z,98761.00
2023-07-24T17:43:17.432Z,98771.00
2023-07-24T17:45:44.794Z,98766.00
2023-07-24T17:48:12.173Z,98770.00
2023-07-24T17:50:40.196Z,98762.00
2023-07-24T17:53:07.569Z,98772.00
2023-07-24T17:55:35.039Z,98770.00
2023-07-24T17:58:02.387Z,98769.00
2023-07-24T18:00:29.754Z,98773.00
2023-07-24T18:02:57.380Z,98786.00
2023-07-24T18:05:24.924Z,98781.00
2023-07-24T18:07:58.948Z,98797.00
2023-07-24T18:10:26.675Z,98799.00
2023-07-24T18:12:55.854Z,98800.00
2023-07-24T18:15:23.538Z,98807.00
2023-07-24T18:17:51.061Z,98810.00
2023-07-24T18:20:18.635Z,98814.00
2023-07-24T18:22:46.573Z,98813.00
2023-07-24T18:25:14.658Z,98820.00
2023-07-24T18:27:42.296Z,98810.00
2023-07-24T18:30:10.065Z,98817.00
2023-07-24T18:32:37.464Z,98825.00
2023-07-24T18:35:06.000Z,98839.00
2023-07-24T18:37:33.422Z,98917.00
2023-07-24T18:40:00.964Z,98947.00
2023-07-24T18:42:29.271Z,98915.00
2023-07-24T18:44:56.837Z,98920.00
2023-07-24T18:47:24.162Z,98902.00
2023-07-24T18:49:51.557Z,98908.00
2023-07-24T18:52:18.938Z,98901.00
2023-07-24T18:54:48.170Z,98927.00
2023-07-24T18:57:15.578Z,98911.00
2023-07-24T18:59:43.724Z,98928.00
2023-07-24T19:02:11.269Z,98950.00
2023-07-24T19:04:38.600Z,98968.00
2023-07-24T19:07:06.434Z,98969.00
2023-07-24T19:09:33.883Z,98952.00
2023-07-24T19:12:01.966Z,98957.00
2023-07-24T19:14:29.348Z,98956.00
2023-07-24T19:16:57.515Z,98970.00
2023-07-24T19:19:24.866Z,98953.00
2023-07-24T19:21:52.531Z,98943.00
2023-07-24T19:24:19.928Z,98948.00
2023-07-24T19:26:48.571Z,98968.00
2023-07-24T19:29:15.978Z,98969.00
2023-07-24T19:31:43.354Z,98976.00
2023-07-24T19:34:11.514Z,98981.00
2023-07-24T19:36:38.856Z,98979.00
2023-07-24T19:39:06.743Z,98981.00
2023-07-24T19:41:34.118Z,98981.00
2023-07-24T19:44:01.696Z,98962.00
2023-07-24T19:46:29.285Z,98970.00
2023-07-24T19:48:56.685Z,98977.00
2023-07-24T19:51:24.714Z,98984.00
2023-07-24T19:53:52.193Z,98988.00
2023-07-24T19:56:19.597Z,98984.00
2023-07-24T19:58:47.506Z,98979.00
2023-07-24T20:01:14.808Z,98988.00
2023-07-24T20:03:42.432Z,98994.00
2023-07-24T20:06:11.230Z,98980.00
2023-07-24T20:08:39.347Z,98991.00
2023-07-24T20:11:07.116Z,98955.00
2023-07-24T20:13:35.241Z,98939.00
2023-07-24T20:16:03.053Z,98943.00
2023-07-24T20:18:30.608Z,98961.00
2023-07-24T20:20:58.050Z,98968.00
2023-07-24T20:23:25.503Z,98962.00
2023-07-24T20:25:53.894Z,98966.00
2023-07-24T20:28:21.890Z,98965.00
2023-07-24T20:30:49.909Z,98976.00
2023-07-24T20:33:17.303Z,98993.00
2023-07-24T20:35:46.481Z,99002.00
2023-07-24T20:38:23.170Z,99013.00
2023-07-24T20:40:50.667Z,99013.00
2023-07-24T20:43:19.007Z,99019.00
2023-07-24T20:45:46.606Z,99020.00
2023-07-24T20:48:14.278Z,99026.00
2023-07-24T20:50:42.107Z,99039.00
2023-07-24T20:53:09.952Z,99052.00
2023-07-24T20:55:37.615Z,99039.00
2023-07-24T20:58:05.308Z,99027.00
2023-07-24T21:00:33.454Z,99034.00
2023-07-24T21:03:01.125Z,99039.00
2023-07-24T21:05:28.547Z,99039.00
2023-07-24T21:07:58.982Z,99048.00
2023-07-24T21:10:26.336Z,99032.00
2023-07-24T21:12:53.703Z,99029.00
2023-07-24T21:15:21.147Z,99029.00
2023-07-24T21:17:49.254Z,99020.00
2023-07-24T21:20:16.952Z,99017.00
2023-07-24T21:22:44.321Z,99013.00
2023-07-24T21:25:11.683Z,99016.00
2023-07-24T21:27:39.047Z,99014.00
2023-07-24T21:30:07.848Z,99007.00
2023-07-24T21:32:35.303Z,99004.00
2023-07-24T21:35:03.670Z,99008.00
2023-07-24T21:37:31.026Z,99013.00
2023-07-24T21:39:58.358Z,99010.00
2023-07-24T21:42:25.817Z,99020.00
2023-07-24T21:44:53.263Z,99021.00
2023-07-24T21:47:20.586Z,99024.00
2023-07-24T21:49:47.967Z,99039.00
2023-07-24T21:52:15.955Z,99037.00
2023-07-24T21:54:43.314Z,99037.00
2023-07-24T21:57:11.072Z,99042.00
2023-07-24T21:59:38.451Z,99047.00
2023-07-24T22:02:06.207Z,99049.00
2023-07-24T22:04:33.565Z,99055.00
2023-07-24T22:07:00.899Z,99054.00
2023-07-24T22:09:30.734Z,99056.00
2023-07-24T22:11:58.179Z,99052.00
2023-07-24T22:14:25.564Z,99057.00
2023-07-24T22:16:53.397Z,99066.00
2023-07-24T22:19:20.979Z,99061.00
2023-07-24T22:21:48.456Z,99061.00
2023-07-24T22:24:15.861Z,99064.00
2023-07-24T22:26:43.927Z,99067.00
2023-07-24T22:29:11.320Z,99055.00
2023-07-24T22:31:38.676Z,99057.00
2023-07-24T22:34:06.046Z,99072.00
2023-07-24T22:36:33.426Z,99064.00
2023-07-24T22:39:02.784Z,99065.00
2023-07-24T22:41:30.394Z,99068.00
2023-07-24T22:43:58.914Z,99060.00
2023-07-24T22:46:26.297Z,99055.00
2023-07-24T22:48:53.746Z,99052.00
2023-07-24T22:51:21.113Z,99055.00
2023-07-24T22:53:49.208Z,99053.00
2023-07-24T22:56:16.630Z,99060.00
2023-07-24T22:59:16.840Z,99061.00
2023-07-24T23:01:44.634Z,99056.00
2023-07-24T23:04:12.288Z,99066.00
2023-07-24T23:06:39.767Z,99063.00
2023-07-24T23:09:44.285Z,99083.00
2023-07-24T23:12:30.392Z,99081.00
2023-07-24T23:14:58.426Z,99081.00
2023-07-24T23:17:26.085Z,99069.00
2023-07-24T23:19:53.494Z,99078.00
2023-07-24T23:22:20.856Z,99089.00
2023-07-24T23:24:48.262Z,99080.00
2023-07-24T23:27:15.654Z,99081.00
2023-07-24T23:29:43.325Z,99081.00
2023-07-24T23:32:11.369Z,99071.00
2023-07-24T23:34:38.691Z,99077.00
2023-07-24T23:37:06.386Z,99085.00
2023-07-24T23:39:33.780Z,99083.00
2023-07-24T23:42:01.148Z,99088.00
2023-07-24T23:44:29.219Z,99081.00
2023-07-24T23:46:56.541Z,99078.00
2023-07-24T23:49:24.661Z,99073.00
2023-07-24T23:51:51.984Z,99084.00
2023-07-24T23:54:19.279Z,99090.00
2023-07-24T23:56:46.661Z,99090.00
2023-07-24T23:59:14.077Z,99082.00
